Time;durP1;ratioP1;P1;durP2;ratioP2;P2;SDS_P1;SDS_P2;PMS_P1;PMS_P2;Temp;Humidity;BMP_temperature;BMP_pressure;BME280_temperature;BME280_humidity;BME280_pressure;Samples;Min_cycle;Max_cycle;Signal;HPM_P1;HPM_P2
2022/10/24 00:00:20;;;;;;;5.83;2.67;;;11.10;99.90;;;;;;5014568;28;20216;-88
2022/10/24 00:02:50;;;;;;;5.70;2.50;;;11.10;99.90;;;;;;4996727;28;20720;-88
2022/10/24 00:05:22;;;;;;;5.13;2.50;;;11.10;99.90;;;;;;5013703;28;20221;-88
2022/10/24 00:07:53;;;;;;;2.77;1.90;;;11.00;99.90;;;;;;5014242;28;20212;-88
2022/10/24 00:10:26;;;;;;;4.10;2.47;;;11.00;99.90;;;;;;5014335;28;20224;-88
2022/10/24 00:12:58;;;;;;;4.23;2.37;;;10.90;99.90;;;;;;5013465;28;20210;-89
2022/10/24 00:15:29;;;;;;;4.10;2.50;;;10.90;99.90;;;;;;5014152;28;20236;-88
2022/10/24 00:18:00;;;;;;;4.87;2.57;;;10.80;99.90;;;;;;5014362;28;20209;-88
2022/10/24 00:20:31;;;;;;;6.97;2.73;;;10.80;99.90;;;;;;5014167;28;20205;-89
2022/10/24 00:23:02;;;;;;;2.53;1.93;;;10.80;99.90;;;;;;5013085;28;20275;-89
2022/10/24 00:25:35;;;;;;;5.33;2.47;;;10.70;99.90;;;;;;5014578;28;20581;-89
2022/10/24 00:28:06;;;;;;;5.87;2.40;;;10.70;99.90;;;;;;5014392;28;20202;-88
2022/10/24 00:30:37;;;;;;;5.80;2.37;;;10.60;99.90;;;;;;5016543;28;20215;-89
2022/10/24 00:33:08;;;;;;;7.97;2.20;;;10.50;99.90;;;;;;5013783;28;20217;-89
2022/10/24 00:35:39;;;;;;;4.90;2.60;;;10.40;99.90;;;;;;5015194;28;20233;-90
2022/10/24 00:38:11;;;;;;;5.53;2.43;;;10.40;99.90;;;;;;5017000;28;20218;-89
2022/10/24 00:40:44;;;;;;;3.83;2.27;;;10.20;99.90;;;;;;5016535;28;20368;-89
2022/10/24 00:43:17;;;;;;;6.13;2.53;;;10.10;99.90;;;;;;5014527;28;20210;-89
2022/10/24 00:45:50;;;;;;;3.10;2.17;;;10.10;99.90;;;;;;5015054;28;20206;-89
2022/10/24 00:48:26;;;;;;;3.70;2.70;;;10.00;99.90;;;;;;5018060;28;20202;-89
2022/10/24 00:51:00;;;;;;;4.90;2.60;;;9.90;99.90;;;;;;5015501;28;20217;-89
2022/10/24 00:53:33;;;;;;;6.43;3.23;;;9.80;99.90;;;;;;5013186;28;20209;-89
2022/10/24 00:56:08;;;;;;;4.97;2.83;;;9.70;99.90;;;;;;5014245;28;20706;-89
2022/10/24 00:58:42;;;;;;;7.10;3.00;;;9.60;99.90;;;;;;5014238;28;20611;-88
2022/10/24 01:01:13;;;;;;;3.60;2.57;;;9.60;99.90;;;;;;5018705;28;20213;-88
2022/10/24 01:03:45;;;;;;;5.20;3.13;;;9.60;99.90;;;;;;5014011;28;20233;-88
2022/10/24 01:06:37;;;;;;;6.60;3.40;;;9.50;99.90;;;;;;5014163;28;20213;-88
2022/10/24 01:09:17;;;;;;;8.80;3.53;;;9.40;99.90;;;;;;5014320;28;20209;-87
2022/10/24 01:12:01;;;;;;;6.33;3.40;;;9.40;99.90;;;;;;5013900;28;20210;-88
2022/10/24 01:14:43;;;;;;;6.90;3.80;;;9.30;99.90;;;;;;5013457;28;20216;-88
2022/10/24 01:17:20;;;;;;;20.17;12.60;;;9.30;99.90;;;;;;5014020;28;20213;-88
2022/10/24 01:20:18;;;;;;;26.17;17.27;;;9.30;99.90;;;;;;5013290;28;20220;-88
2022/10/24 01:23:05;;;;;;;20.73;13.53;;;9.20;99.90;;;;;;5012336;28;20217;-88
2022/10/24 01:25:45;;;;;;;10.07;6.77;;;9.20;99.90;;;;;;4997689;28;20213;-88
2022/10/24 01:28:23;;;;;;;5.77;4.80;;;9.20;99.90;;;;;;5013500;28;20213;-89
2022/10/24 01:31:07;;;;;;;18.80;12.43;;;9.20;99.90;;;;;;5013257;28;20209;-89
2022/10/24 01:33:43;;;;;;;12.60;6.80;;;9.20;99.90;;;;;;5011767;28;20208;-95
2022/10/24 01:36:20;;;;;;;7.87;5.00;;;9.20;99.90;;;;;;5013597;28;20229;-93
2022/10/24 01:38:58;;;;;;;7.60;3.80;;;9.10;99.90;;;;;;5017769;28;20244;-91
2022/10/24 01:41:31;;;;;;;5.73;3.37;;;9.10;99.90;;;;;;5010814;28;20692;-91
2022/10/24 01:44:07;;;;;;;4.40;3.13;;;9.00;99.90;;;;;;5005890;28;20206;-91
2022/10/24 01:46:45;;;;;;;4.40;3.00;;;9.00;99.90;;;;;;5013014;28;20244;-91
2022/10/24 01:49:18;;;;;;;6.17;3.20;;;9.00;99.90;;;;;;5011402;28;20209;-91
2022/10/24 01:51:54;;;;;;;5.57;2.77;;;8.90;99.90;;;;;;5014991;28;20210;-92
2022/10/24 01:54:25;;;;;;;5.63;2.87;;;8.90;99.90;;;;;;5015761;28;20654;-92
2022/10/24 01:56:57;;;;;;;5.13;2.90;;;8.90;99.90;;;;;;5018264;28;20234;-92
2022/10/24 01:59:46;;;;;;;4.97;2.87;;;8.90;99.90;;;;;;5025248;28;20209;-92
2022/10/24 02:02:24;;;;;;;4.20;2.80;;;8.90;99.90;;;;;;5015450;28;20205;-91
2022/10/24 02:05:01;;;;;;;5.50;2.80;;;8.90;99.90;;;;;;5028366;28;20205;-93
2022/10/24 02:07:35;;;;;;;9.20;3.20;;;8.90;99.90;;;;;;5026835;28;20213;-91
2022/10/24 02:10:11;;;;;;;5.33;3.13;;;9.00;99.90;;;;;;5017964;28;20205;-91
2022/10/24 02:12:46;;;;;;;4.27;3.10;;;9.00;99.90;;;;;;5017927;28;20210;-92
2022/10/24 02:15:24;;;;;;;5.67;3.20;;;8.90;99.90;;;;;;4999861;28;20238;-91
2022/10/24 02:17:58;;;;;;;6.40;2.80;;;8.90;99.90;;;;;;5017261;28;20205;-89
2022/10/24 02:20:34;;;;;;;5.97;3.23;;;8.90;99.90;;;;;;5014268;28;20219;-91
2022/10/24 02:23:12;;;;;;;5.70;2.53;;;8.90;99.90;;;;;;5013207;28;20207;-91
2022/10/24 02:25:47;;;;;;;6.17;3.00;;;8.90;99.90;;;;;;5016564;28;20543;-92
2022/10/24 02:28:22;;;;;;;5.47;2.90;;;8.90;99.90;;;;;;5017235;28;20674;-91
2022/10/24 02:30:57;;;;;;;5.00;3.10;;;8.80;99.90;;;;;;5018566;28;20219;-92
2022/10/24 02:33:31;;;;;;;5.70;3.20;;;8.80;99.90;;;;;;5018553;28;20223;-92
2022/10/24 02:36:04;;;;;;;6.90;3.00;;;8.80;99.90;;;;;;5021271;28;20232;-92
2022/10/24 02:38:40;;;;;;;5.60;3.00;;;8.90;99.90;;;;;;5027181;28;20213;-91
2022/10/24 02:41:17;;;;;;;4.43;3.57;;;8.90;99.90;;;;;;5018555;28;20201;-91
2022/10/24 02:43:50;;;;;;;4.50;3.10;;;8.90;99.90;;;;;;5020891;28;20209;-91
2022/10/24 02:46:22;;;;;;;6.17;3.27;;;8.90;99.90;;;;;;5019075;28;20225;-90
2022/10/24 02:48:59;;;;;;;4.10;3.30;;;8.90;99.90;;;;;;5016104;28;20214;-92
2022/10/24 02:51:33;;;;;;;5.07;3.87;;;8.90;99.90;;;;;;5012172;28;20206;-91
2022/10/24 02:54:05;;;;;;;5.53;3.80;;;8.90;99.90;;;;;;5014220;28;20225;-93
2022/10/24 02:56:38;;;;;;;4.90;3.80;;;8.90;99.90;;;;;;5013222;28;20229;-93
2022/10/24 02:59:10;;;;;;;6.23;3.80;;;8.90;99.90;;;;;;4999227;28;20210;-93
2022/10/24 03:01:41;;;;;;;7.27;3.70;;;8.90;99.90;;;;;;5014834;28;20210;-91
2022/10/24 03:04:15;;;;;;;6.23;3.63;;;8.90;99.90;;;;;;5006539;28;20266;-92
2022/10/24 03:06:47;;;;;;;6.17;3.70;;;9.00;99.90;;;;;;4996995;28;20256;-93
2022/10/24 03:09:19;;;;;;;8.17;3.80;;;9.00;99.90;;;;;;5015723;28;20209;-93
2022/10/24 03:11:49;;;;;;;5.20;3.87;;;9.00;99.90;;;;;;5028134;28;20221;-93
2022/10/24 03:14:20;;;;;;;5.00;3.70;;;9.10;99.90;;;;;;5021050;28;20206;-92
2022/10/24 03:16:51;;;;;;;5.77;3.70;;;9.00;99.90;;;;;;5016348;28;20780;-92
2022/10/24 03:19:25;;;;;;;5.90;3.87;;;9.00;99.90;;;;;;5007135;28;20646;-93
2022/10/24 03:21:56;;;;;;;7.53;3.83;;;9.10;99.90;;;;;;5017177;28;20220;-91
2022/10/24 03:24:27;;;;;;;6.50;3.50;;;9.10;99.90;;;;;;5011770;28;20217;-91
2022/10/24 03:27:14;;;;;;;5.57;3.87;;;9.10;99.90;;;;;;5015579;28;20213;-91
2022/10/24 03:29:46;;;;;;;6.37;3.97;;;9.10;99.90;;;;;;5018729;28;20213;-91
2022/10/24 03:32:17;;;;;;;5.57;3.80;;;9.10;99.90;;;;;;5015865;28;20193;-91
2022/10/24 03:34:52;;;;;;;8.03;3.90;;;9.10;99.90;;;;;;5003617;28;20217;-91
2022/10/24 03:37:24;;;;;;;7.63;4.10;;;9.10;99.90;;;;;;5018105;28;20240;-92
2022/10/24 03:39:55;;;;;;;5.60;4.00;;;9.10;99.90;;;;;;5016301;28;20209;-91
2022/10/24 03:42:26;;;;;;;7.03;4.47;;;9.10;99.90;;;;;;5016676;28;20217;-92
2022/10/24 03:44:59;;;;;;;6.70;3.73;;;9.00;99.90;;;;;;5018298;28;20217;-92
2022/10/24 03:47:30;;;;;;;5.70;3.83;;;9.20;99.90;;;;;;5024779;28;20211;-92
2022/10/24 03:50:04;;;;;;;7.50;3.83;;;9.20;99.90;;;;;;5017032;28;20211;-93
2022/10/24 03:52:36;;;;;;;3.87;2.90;;;9.10;99.90;;;;;;5007504;28;20216;-93
2022/10/24 03:55:09;;;;;;;5.33;3.13;;;9.10;99.90;;;;;;5014893;28;20210;-92
2022/10/24 03:57:41;;;;;;;6.93;2.80;;;9.10;99.90;;;;;;5002957;28;20241;-93
2022/10/24 04:00:14;;;;;;;4.60;3.20;;;9.10;99.90;;;;;;5017750;28;20221;-91
2022/10/24 04:02:45;;;;;;;6.80;3.50;;;9.10;99.90;;;;;;5010435;28;20258;-93
2022/10/24 04:05:20;;;;;;;6.03;3.53;;;9.10;99.90;;;;;;5014687;28;20679;-93
2022/10/24 04:07:51;;;;;;;4.50;2.70;;;9.20;99.90;;;;;;5012505;28;20206;-92
2022/10/24 04:10:22;;;;;;;4.77;2.90;;;9.20;99.90;;;;;;5018637;28;20590;-93
2022/10/24 04:12:54;;;;;;;6.10;3.00;;;9.20;99.90;;;;;;5001081;28;20234;-93
2022/10/24 04:15:25;;;;;;;5.10;2.40;;;9.20;99.90;;;;;;5016490;28;20209;-93
2022/10/24 04:17:56;;;;;;;5.00;2.50;;;9.20;99.90;;;;;;5013741;28;20236;-92
2022/10/24 04:20:29;;;;;;;4.93;2.47;;;9.30;99.90;;;;;;5017583;28;20304;-92
2022/10/24 04:23:00;;;;;;;3.13;2.40;;;9.40;99.90;;;;;;5014590;28;20214;-92
2022/10/24 04:25:33;;;;;;;3.73;2.30;;;9.40;99.90;;;;;;5009610;28;20670;-92
2022/10/24 04:28:05;;;;;;;5.13;2.80;;;9.40;99.90;;;;;;5027220;28;20208;-93
2022/10/24 04:30:36;;;;;;;4.17;2.67;;;9.40;99.90;;;;;;5024724;28;20279;-91
2022/10/24 04:33:08;;;;;;;3.83;2.37;;;9.30;99.90;;;;;;5029017;28;20191;-93
2022/10/24 04:35:41;;;;;;;4.63;2.60;;;9.40;99.90;;;;;;5034974;28;21517;-92
2022/10/24 04:38:12;;;;;;;3.73;2.83;;;9.40;99.90;;;;;;5022860;28;20238;-91
2022/10/24 04:40:48;;;;;;;4.77;2.60;;;9.30;99.90;;;;;;5033026;28;20277;-92
2022/10/24 04:43:19;;;;;;;4.63;2.50;;;9.30;99.90;;;;;;5034199;28;20184;-93
2022/10/24 04:45:50;;;;;;;4.93;3.13;;;9.30;99.90;;;;;;5032543;28;20236;-92
2022/10/24 04:48:23;;;;;;;6.07;2.90;;;9.30;99.90;;;;;;5030622;28;20256;-92
2022/10/24 04:50:58;;;;;;;3.70;2.50;;;9.30;99.90;;;;;;5021069;28;20666;-91
2022/10/24 04:53:29;;;;;;;5.23;2.47;;;9.30;99.90;;;;;;5018776;28;20213;-93
2022/10/24 04:56:01;;;;;;;6.00;2.60;;;9.20;99.90;;;;;;5009111;28;20225;-93
2022/10/24 04:58:35;;;;;;;7.17;2.77;;;9.20;99.90;;;;;;4994638;28;20240;-92
2022/10/24 05:01:11;;;;;;;7.37;2.83;;;9.30;99.90;;;;;;5018525;28;20240;-93
2022/10/24 05:03:45;;;;;;;4.47;2.70;;;9.30;99.90;;;;;;5007107;28;20205;-93
2022/10/24 05:06:19;;;;;;;9.23;3.00;;;9.30;99.90;;;;;;4999463;28;20232;-93
2022/10/24 05:08:52;;;;;;;5.27;2.77;;;9.30;99.90;;;;;;5014551;28;20221;-93
2022/10/24 05:11:25;;;;;;;6.77;3.17;;;9.40;99.90;;;;;;5013214;28;20201;-94
2022/10/24 05:13:56;;;;;;;4.80;2.53;;;9.30;99.90;;;;;;5014884;28;20316;-92
2022/10/24 05:16:28;;;;;;;6.77;2.90;;;9.30;99.90;;;;;;5014647;28;20212;-92
2022/10/24 05:18:59;;;;;;;6.10;2.30;;;9.40;99.90;;;;;;5011743;28;20210;-93
2022/10/24 05:21:34;;;;;;;6.43;2.90;;;9.40;99.90;;;;;;5004306;28;20206;-92
2022/10/24 05:24:05;;;;;;;10.57;3.43;;;9.40;99.90;;;;;;4978096;28;20241;-93
2022/10/24 05:26:36;;;;;;;5.00;2.33;;;9.30;99.90;;;;;;5004453;28;20213;-92
2022/10/24 05:29:08;;;;;;;5.83;2.60;;;9.30;99.90;;;;;;4997528;28;20209;-93
2022/10/24 05:31:39;;;;;;;5.27;2.70;;;9.30;99.90;;;;;;5001257;28;20209;-92
2022/10/24 05:34:10;;;;;;;5.27;2.13;;;9.30;99.90;;;;;;5017074;28;20229;-91
2022/10/24 05:36:43;;;;;;;5.93;2.80;;;9.40;99.90;;;;;;5018086;28;20208;-92
2022/10/24 05:39:14;;;;;;;6.93;2.77;;;9.40;99.90;;;;;;5019677;28;20313;-93
2022/10/24 05:41:46;;;;;;;5.57;2.83;;;9.40;99.90;;;;;;5020626;28;20215;-92
2022/10/24 05:44:24;;;;;;;4.83;2.43;;;9.40;99.90;;;;;;5005876;28;20213;-89
2022/10/24 05:46:57;;;;;;;6.30;2.60;;;9.40;99.90;;;;;;5019124;28;20261;-93
2022/10/24 05:49:28;;;;;;;6.37;3.00;;;9.40;99.90;;;;;;5018901;28;20571;-92
2022/10/24 05:52:02;;;;;;;12.00;3.07;;;9.40;99.90;;;;;;5017316;28;20210;-93
2022/10/24 05:54:33;;;;;;;9.93;3.20;;;9.40;99.90;;;;;;5017899;28;20221;-91
2022/10/24 05:57:25;;;;;;;7.80;2.87;;;9.30;99.90;;;;;;5017723;28;20234;-93
2022/10/24 05:59:56;;;;;;;5.50;2.77;;;9.30;99.90;;;;;;5001779;28;20206;-93
2022/10/24 06:02:27;;;;;;;10.10;2.70;;;9.40;99.90;;;;;;5018445;28;20251;-93
2022/10/24 06:04:58;;;;;;;4.97;2.57;;;9.30;99.90;;;;;;5023037;28;20273;-93
2022/10/24 06:07:35;;;;;;;8.47;2.73;;;9.30;99.90;;;;;;5020425;28;20213;-93
2022/10/24 06:10:08;;;;;;;6.00;2.70;;;9.30;99.90;;;;;;5021971;28;20213;-92
2022/10/24 06:12:40;;;;;;;6.90;2.70;;;9.30;99.90;;;;;;5020676;28;20189;-92
2022/10/24 06:15:14;;;;;;;7.50;2.60;;;9.40;99.90;;;;;;5007152;28;20685;-93
2022/10/24 06:17:46;;;;;;;10.23;3.20;;;9.40;99.90;;;;;;5021081;28;20599;-93
2022/10/24 06:20:17;;;;;;;5.63;2.57;;;9.40;99.90;;;;;;5012486;28;20312;-92
2022/10/24 06:22:51;;;;;;;8.10;2.67;;;9.40;99.90;;;;;;5012551;28;20206;-92
2022/10/24 06:25:22;;;;;;;6.37;2.80;;;9.40;99.90;;;;;;5018527;28;20213;-91
2022/10/24 06:27:53;;;;;;;8.83;2.73;;;9.40;99.90;;;;;;5018423;28;20673;-92
2022/10/24 06:30:24;;;;;;;8.23;2.53;;;9.40;99.90;;;;;;5017808;28;20224;-92
2022/10/24 06:32:55;;;;;;;9.33;2.57;;;9.40;99.90;;;;;;5000352;28;20220;-92
2022/10/24 06:35:26;;;;;;;8.60;2.57;;;9.40;99.90;;;;;;5016804;28;20202;-92
2022/10/24 06:38:00;;;;;;;7.50;2.93;;;9.40;99.90;;;;;;5017081;28;20586;-92
2022/10/24 06:40:31;;;;;;;7.13;2.50;;;9.50;99.90;;;;;;5015594;28;20228;-94
2022/10/24 06:43:03;;;;;;;8.77;2.80;;;9.50;99.90;;;;;;5006786;28;20297;-93
2022/10/24 06:45:34;;;;;;;6.00;2.43;;;9.50;99.90;;;;;;5016367;28;20210;-92
2022/10/24 06:48:05;;;;;;;7.83;2.90;;;9.40;99.90;;;;;;5017848;28;20658;-92
2022/10/24 06:50:39;;;;;;;7.33;2.53;;;9.40;99.90;;;;;;5017591;28;20217;-92
2022/10/24 06:53:12;;;;;;;7.03;2.47;;;9.50;99.90;;;;;;5015532;28;20212;-92
2022/10/24 06:55:44;;;;;;;6.20;2.87;;;9.50;99.90;;;;;;5005079;28;20212;-93
2022/10/24 06:58:15;;;;;;;8.63;3.30;;;9.50;99.90;;;;;;4999914;28;20240;-93
2022/10/24 07:00:46;;;;;;;5.13;2.83;;;9.50;99.90;;;;;;5011848;28;20216;-93
2022/10/24 07:03:19;;;;;;;7.93;2.47;;;9.50;99.90;;;;;;4999033;28;20279;-94
2022/10/24 07:05:51;;;;;;;9.23;2.60;;;9.50;99.90;;;;;;5016648;28;20194;-93
2022/10/24 07:08:24;;;;;;;8.40;2.90;;;9.50;99.90;;;;;;5017353;28;20206;-92
2022/10/24 07:10:56;;;;;;;7.07;2.30;;;9.50;99.90;;;;;;5018422;28;20204;-92
2022/10/24 07:13:29;;;;;;;11.23;2.03;;;9.50;99.90;;;;;;5036068;28;20224;-93
2022/10/24 07:16:00;;;;;;;6.70;2.00;;;9.50;99.90;;;;;;5029316;28;20202;-92
2022/10/24 07:18:31;;;;;;;9.43;2.33;;;9.50;99.90;;;;;;5016834;28;20234;-91
2022/10/24 07:21:07;;;;;;;6.07;2.07;;;9.40;99.90;;;;;;5016455;28;20232;-91
2022/10/24 07:23:40;;;;;;;7.70;2.10;;;9.40;99.90;;;;;;5021374;28;20189;-93
2022/10/24 07:26:15;;;;;;;6.23;1.87;;;9.30;99.90;;;;;;5038340;28;20221;-93
2022/10/24 07:28:47;;;;;;;10.50;2.10;;;9.30;99.90;;;;;;5044932;28;20210;-92
2022/10/24 07:31:20;;;;;;;8.77;2.27;;;9.30;99.90;;;;;;5030934;28;20202;-93
2022/10/24 07:33:52;;;;;;;5.10;1.87;;;9.30;99.90;;;;;;5018911;28;20205;-91
2022/10/24 07:36:25;;;;;;;9.27;2.00;;;9.30;99.90;;;;;;5021300;28;20217;-93
2022/10/24 07:38:59;;;;;;;7.53;2.20;;;9.20;99.90;;;;;;5015966;28;20243;-93
2022/10/24 07:41:32;;;;;;;7.80;2.13;;;9.20;99.90;;;;;;5033956;28;20196;-93
2022/10/24 07:44:04;;;;;;;8.47;1.83;;;9.20;99.90;;;;;;5054724;28;20213;-92
2022/10/24 07:46:35;;;;;;;6.93;2.10;;;9.30;99.90;;;;;;5029259;28;20202;-92
2022/10/24 07:49:09;;;;;;;9.50;2.20;;;9.20;99.90;;;;;;5028893;28;20557;-93
2022/10/24 07:51:41;;;;;;;7.77;2.20;;;9.10;99.90;;;;;;5020716;28;20202;-93
2022/10/24 07:54:14;;;;;;;10.53;2.23;;;9.10;99.90;;;;;;5014581;28;20210;-93
2022/10/24 07:56:45;;;;;;;7.07;2.10;;;9.10;99.90;;;;;;4996180;28;20218;-92
2022/10/24 07:59:17;;;;;;;7.23;1.93;;;9.10;99.90;;;;;;5013032;28;20233;-92
2022/10/24 08:02:08;;;;;;;8.13;2.10;;;9.10;99.90;;;;;;5015272;28;20197;-92
2022/10/24 08:04:39;;;;;;;7.27;1.80;;;9.10;99.90;;;;;;5015912;28;20209;-92
2022/10/24 08:07:11;;;;;;;11.07;2.10;;;9.10;99.90;;;;;;5018002;28;20592;-93
2022/10/24 08:09:47;;;;;;;6.23;2.10;;;9.00;99.90;;;;;;5028180;28;20851;-92
2022/10/24 08:12:19;;;;;;;9.67;2.30;;;8.90;99.90;;;;;;4995317;28;20311;-93
2022/10/24 08:14:51;;;;;;;10.67;2.30;;;8.90;99.90;;;;;;4996088;28;20202;-92
2022/10/24 08:17:23;;;;;;;12.73;2.00;;;8.90;99.90;;;;;;4995659;28;20217;-93
2022/10/24 08:19:54;;;;;;;7.67;2.30;;;8.90;99.90;;;;;;5014603;28;20229;-93
2022/10/24 08:22:25;;;;;;;9.90;2.40;;;8.80;99.90;;;;;;5014516;28;20217;-92
2022/10/24 08:24:59;;;;;;;9.87;2.07;;;8.90;99.90;;;;;;5015866;28;20241;-93
2022/10/24 08:27:31;;;;;;;9.33;2.63;;;8.80;99.90;;;;;;5015542;28;20221;-93
2022/10/24 08:30:02;;;;;;;6.87;1.93;;;8.90;99.90;;;;;;5015061;28;20198;-92
2022/10/24 08:32:33;;;;;;;11.47;2.33;;;8.80;99.90;;;;;;5014284;28;20205;-92
2022/10/24 08:35:04;;;;;;;8.30;2.67;;;8.90;99.90;;;;;;4998523;28;20202;-92
2022/10/24 08:37:37;;;;;;;10.90;2.33;;;8.90;99.90;;;;;;5016246;28;20224;-93
2022/10/24 08:40:16;;;;;;;7.30;1.73;;;8.80;99.90;;;;;;5017577;28;20233;-92
2022/10/24 08:42:48;;;;;;;5.27;1.53;;;8.80;99.90;;;;;;4994959;28;20284;-92
2022/10/24 08:45:28;;;;;;;8.47;2.60;;;8.80;99.90;;;;;;5000346;28;20206;-92
2022/10/24 08:48:04;;;;;;;7.47;2.17;;;8.80;99.90;;;;;;5017237;28;20205;-92
2022/10/24 08:50:37;;;;;;;9.10;2.33;;;8.80;99.90;;;;;;5018230;28;20209;-91
2022/10/24 08:53:12;;;;;;;8.13;2.40;;;8.80;99.90;;;;;;5019576;28;20211;-91
2022/10/24 08:55:49;;;;;;;13.37;2.40;;;8.70;99.90;;;;;;5019474;28;20579;-94
2022/10/24 08:58:25;;;;;;;5.97;1.80;;;8.60;99.90;;;;;;4998580;28;20206;-92
2022/10/24 09:00:58;;;;;;;5.57;1.87;;;8.60;99.90;;;;;;4998351;28;20220;-92
2022/10/24 09:03:35;;;;;;;9.23;2.23;;;8.70;99.90;;;;;;4995242;28;20658;-92
2022/10/24 09:06:27;;;;;;;7.23;2.37;;;8.70;99.90;;;;;;5013189;28;20209;-92
2022/10/24 09:09:02;;;;;;;5.87;1.77;;;8.70;99.90;;;;;;5019300;28;20221;-91
2022/10/24 09:11:52;;;;;;;4.80;1.80;;;8.70;99.90;;;;;;5018604;28;20213;-92
2022/10/24 09:14:27;;;;;;;4.50;2.00;;;8.70;99.90;;;;;;5018592;28;20221;-92
2022/10/24 09:17:03;;;;;;;5.67;2.13;;;8.70;99.90;;;;;;5018998;28;20542;-92
2022/10/24 09:19:35;;;;;;;7.37;1.70;;;8.70;99.90;;;;;;5018090;28;20232;-93
2022/10/24 09:22:08;;;;;;;8.67;1.90;;;8.60;99.90;;;;;;5017941;28;20209;-93
2022/10/24 09:24:45;;;;;;;6.10;1.50;;;8.60;99.90;;;;;;5019645;28;20253;-93
2022/10/24 09:27:22;;;;;;;4.93;1.97;;;8.60;99.90;;;;;;5038597;28;20246;-92
2022/10/24 09:29:54;;;;;;;5.33;1.57;;;8.60;99.90;;;;;;5017060;28;20215;-92
2022/10/24 09:32:29;;;;;;;4.23;1.90;;;8.70;99.90;;;;;;5017570;28;20215;-93
2022/10/24 09:35:04;;;;;;;7.57;2.17;;;8.70;99.90;;;;;;5018432;28;20582;-92
2022/10/24 09:37:39;;;;;;;4.47;1.70;;;8.70;99.90;;;;;;5018901;28;20210;-92
2022/10/24 09:40:21;;;;;;;4.60;1.70;;;8.60;99.90;;;;;;5017929;28;20268;-93
2022/10/24 09:42:59;;;;;;;4.60;1.70;;;8.60;99.90;;;;;;5001608;28;20217;-94
2022/10/24 09:45:39;;;;;;;7.57;1.70;;;8.60;99.90;;;;;;5018591;28;20205;-93
2022/10/24 09:48:20;;;;;;;5.43;1.70;;;8.70;99.90;;;;;;5018220;28;20232;-92
2022/10/24 09:50:58;;;;;;;6.10;1.97;;;8.60;99.90;;;;;;5004962;28;20214;-91
2022/10/24 09:53:33;;;;;;;4.77;1.70;;;8.60;99.90;;;;;;5016624;28;20296;-92
2022/10/24 09:56:11;;;;;;;5.20;1.67;;;8.70;99.90;;;;;;5026598;28;20739;-92
2022/10/24 09:58:45;;;;;;;5.67;1.93;;;8.60;99.90;;;;;;5038209;28;20209;-92
2022/10/24 10:01:22;;;;;;;5.53;1.77;;;8.60;99.90;;;;;;5022239;28;20233;-92
2022/10/24 10:04:03;;;;;;;5.73;1.87;;;8.60;99.90;;;;;;4999210;28;20216;-92
2022/10/24 10:06:46;;;;;;;4.60;1.80;;;8.70;99.90;;;;;;5017439;28;20201;-92
2022/10/24 10:09:27;;;;;;;4.83;1.53;;;8.70;99.90;;;;;;5020726;28;20613;-92
2022/10/24 10:11:59;;;;;;;5.37;1.87;;;8.70;99.90;;;;;;5028101;28;20210;-92
2022/10/24 10:14:42;;;;;;;6.30;1.67;;;8.70;99.90;;;;;;5022112;28;20214;-92
2022/10/24 10:17:23;;;;;;;4.63;1.50;;;8.80;99.90;;;;;;5020769;28;20285;-92
2022/10/24 10:19:56;;;;;;;5.93;1.90;;;8.70;99.90;;;;;;5023212;28;20244;-92
2022/10/24 10:22:30;;;;;;;6.70;1.93;;;8.70;99.90;;;;;;5035784;28;20236;-93
2022/10/24 10:25:02;;;;;;;5.97;1.33;;;8.70;99.90;;;;;;5037359;28;20229;-92
2022/10/24 10:27:36;;;;;;;5.63;1.60;;;8.70;99.90;;;;;;5038017;28;20216;-93
2022/10/24 10:30:24;;;;;;;5.77;1.77;;;8.70;99.90;;;;;;5027725;28;20205;-92
2022/10/24 10:33:10;;;;;;;8.47;2.00;;;8.70;99.90;;;;;;5028109;28;20273;-93
2022/10/24 10:35:50;;;;;;;7.37;1.97;;;8.70;99.90;;;;;;5024110;28;20201;-92
2022/10/24 10:38:44;;;;;;;6.93;2.00;;;8.80;99.90;;;;;;5019718;28;20208;-93
2022/10/24 10:41:25;;;;;;;6.23;1.73;;;8.80;99.90;;;;;;5007211;28;20246;-92
2022/10/24 10:44:07;;;;;;;7.33;1.87;;;8.80;99.90;;;;;;4996784;28;20224;-92
2022/10/24 10:46:51;;;;;;;3.57;1.43;;;8.80;99.90;;;;;;4998660;28;20198;-92
2022/10/24 10:49:29;;;;;;;5.60;1.80;;;8.90;99.90;;;;;;5017114;28;20208;-94
2022/10/24 10:52:07;;;;;;;6.33;1.80;;;9.00;99.90;;;;;;4999538;28;20214;-92
2022/10/24 10:55:00;;;;;;;7.03;1.73;;;9.00;99.90;;;;;;5017002;28;20220;-92
2022/10/24 10:57:38;;;;;;;6.57;1.93;;;9.00;99.90;;;;;;5017524;28;20205;-92
2022/10/24 11:00:13;;;;;;;4.03;1.53;;;9.00;99.90;;;;;;5017112;28;20240;-92
2022/10/24 11:03:15;;;;;;;4.47;1.70;;;8.90;99.90;;;;;;5015647;28;20201;-92
2022/10/24 11:05:59;;;;;;;6.67;2.13;;;8.90;99.90;;;;;;4994963;28;20209;-91
2022/10/24 11:09:15;;;;;;;4.17;1.30;;;8.90;99.90;;;;;;4993589;28;20210;-92
2022/10/24 11:11:51;;;;;;;4.87;1.70;;;8.90;99.90;;;;;;4998700;28;20214;-93
2022/10/24 11:14:30;;;;;;;6.93;1.53;;;8.90;99.90;;;;;;5016620;28;20662;-91
2022/10/24 11:17:12;;;;;;;6.90;1.67;;;8.80;99.90;;;;;;5017265;28;20202;-92
2022/10/24 11:19:51;;;;;;;6.37;1.70;;;8.90;99.90;;;;;;5017165;28;20244;-93
2022/10/24 11:22:26;;;;;;;4.10;1.50;;;8.90;99.90;;;;;;5018274;28;20206;-92
2022/10/24 11:25:02;;;;;;;4.53;1.40;;;9.00;99.90;;;;;;4997037;28;20653;-91
2022/10/24 11:27:41;;;;;;;5.17;1.10;;;9.00;99.90;;;;;;5015719;28;20749;-92
2022/10/24 11:30:16;;;;;;;4.77;1.30;;;9.10;99.90;;;;;;5005226;28;20206;-92
2022/10/24 11:32:53;;;;;;;5.40;1.23;;;9.10;99.90;;;;;;5018362;28;20232;-91
2022/10/24 11:35:31;;;;;;;3.77;1.00;;;9.10;99.90;;;;;;5020444;28;20215;-92
2022/10/24 11:38:08;;;;;;;3.87;1.40;;;9.10;99.90;;;;;;5019076;28;20234;-92
2022/10/24 11:40:44;;;;;;;5.20;1.27;;;9.00;99.90;;;;;;5017369;28;20236;-92
2022/10/24 11:43:21;;;;;;;5.83;1.83;;;9.00;99.90;;;;;;5011553;28;20202;-92
2022/10/24 11:46:00;;;;;;;4.93;1.27;;;8.90;99.90;;;;;;5021265;28;20303;-93
2022/10/24 11:48:36;;;;;;;6.10;1.70;;;8.90;99.90;;;;;;5021439;28;20213;-92
2022/10/24 11:51:15;;;;;;;5.40;1.83;;;8.80;99.90;;;;;;5018797;28;20655;-93
2022/10/24 11:53:54;;;;;;;5.37;1.23;;;8.80;99.90;;;;;;5016017;28;20650;-92
2022/10/24 11:56:32;;;;;;;7.17;1.70;;;8.80;99.90;;;;;;5022102;28;20225;-91
2022/10/24 11:59:05;;;;;;;6.37;1.20;;;8.70;99.90;;;;;;4996747;28;20206;-92
2022/10/24 12:01:52;;;;;;;8.73;1.60;;;8.70;99.90;;;;;;5014026;28;20623;-92
2022/10/24 12:04:44;;;;;;;3.37;1.37;;;8.70;99.90;;;;;;5017010;28;20212;-92
2022/10/24 12:07:48;;;;;;;5.57;1.20;;;8.60;99.90;;;;;;5015826;28;20214;-92
2022/10/24 12:10:35;;;;;;;3.03;1.20;;;8.60;99.90;;;;;;5014443;28;20201;-92
2022/10/24 12:13:34;;;;;;;4.20;1.10;;;8.60;99.90;;;;;;5014770;28;20565;-93
2022/10/24 12:16:17;;;;;;;6.83;1.27;;;8.60;99.90;;;;;;4989455;28;20648;-92
2022/10/24 12:18:51;;;;;;;2.33;0.97;;;8.60;99.90;;;;;;4995934;28;20219;-91
2022/10/24 12:21:28;;;;;;;3.13;1.30;;;8.50;99.90;;;;;;4995542;28;20230;-93
2022/10/24 12:24:01;;;;;;;3.97;1.30;;;8.50;99.90;;;;;;4995864;28;20259;-93
2022/10/24 12:26:36;;;;;;;3.50;1.20;;;8.60;99.90;;;;;;4995229;28;20290;-92
2022/10/24 12:29:08;;;;;;;4.90;1.20;;;8.60;99.90;;;;;;4982212;28;20647;-92
2022/10/24 12:31:40;;;;;;;6.27;1.53;;;8.60;99.90;;;;;;4995720;28;20297;-93
2022/10/24 12:34:41;;;;;;;8.03;1.40;;;8.70;99.90;;;;;;5014110;28;20581;-90
2022/10/24 12:37:37;;;;;;;5.33;1.33;;;8.50;99.90;;;;;;5015267;28;20217;-93
2022/10/24 12:40:54;;;;;;;4.00;1.10;;;8.40;99.90;;;;;;5000342;28;20232;-93
2022/10/24 12:43:35;;;;;;;3.53;1.40;;;8.40;99.90;;;;;;4976079;28;20222;-92
2022/10/24 12:46:39;;;;;;;7.57;1.43;;;8.40;99.90;;;;;;4959578;28;20686;-92
2022/10/24 12:49:20;;;;;;;4.30;1.53;;;8.40;99.90;;;;;;4976735;28;20206;-92
2022/10/24 12:51:55;;;;;;;5.17;1.30;;;8.20;99.90;;;;;;4975956;28;20293;-91
2022/10/24 12:54:44;;;;;;;5.70;1.53;;;8.00;99.90;;;;;;4988854;28;20240;-92
2022/10/24 12:57:24;;;;;;;5.13;1.40;;;8.00;99.90;;;;;;4977695;28;20209;-91
2022/10/24 12:59:59;;;;;;;5.77;2.20;;;7.90;99.90;;;;;;5007761;28;20218;-91
2022/10/24 13:02:54;;;;;;;4.80;1.50;;;7.80;99.90;;;;;;4998340;28;20232;-92
2022/10/24 13:05:49;;;;;;;5.13;1.70;;;7.80;99.90;;;;;;5004506;28;20213;-91
2022/10/24 13:08:34;;;;;;;2.90;1.20;;;7.80;99.90;;;;;;4983461;28;20219;-92
2022/10/24 13:11:23;;;;;;;4.20;1.30;;;7.80;99.90;;;;;;4989520;28;20218;-92
2022/10/24 13:14:28;;;;;;;4.37;1.17;;;7.70;99.90;;;;;;4987704;28;20207;-93
2022/10/24 13:17:09;;;;;;;3.43;1.50;;;7.70;99.90;;;;;;4983195;28;20209;-91
2022/10/24 13:19:41;;;;;;;4.30;1.70;;;7.70;99.90;;;;;;4984633;28;20204;-91
2022/10/24 13:22:31;;;;;;;3.93;1.50;;;7.70;99.90;;;;;;4996868;28;20244;-91
2022/10/24 13:25:32;;;;;;;2.83;1.57;;;7.70;99.90;;;;;;4995565;28;20685;-91
2022/10/24 13:28:37;;;;;;;3.90;1.10;;;7.70;99.90;;;;;;4997773;28;20235;-91
2022/10/24 13:31:44;;;;;;;4.60;1.60;;;7.60;99.90;;;;;;4994706;28;20224;-92
2022/10/24 13:34:27;;;;;;;4.30;1.50;;;7.60;99.90;;;;;;4959393;28;20225;-92
2022/10/24 13:37:09;;;;;;;3.77;1.60;;;7.60;99.90;;;;;;4977536;28;20240;-92
2022/10/24 13:39:48;;;;;;;5.33;1.57;;;7.60;99.90;;;;;;4994730;28;20221;-92
2022/10/24 13:42:30;;;;;;;4.37;1.40;;;7.60;99.90;;;;;;4994249;28;20604;-91